createdAt,value
2018-05-29T00:00:58.612Z,9.70
2018-05-29T00:03:26.089Z,10.32
2018-05-29T00:05:53.557Z,9.98
2018-05-29T00:08:21.042Z,11.07
2018-05-29T00:10:48.546Z,10.18
2018-05-29T00:13:16.019Z,10.68
2018-05-29T00:15:43.462Z,10.02
2018-05-29T00:18:10.930Z,9.90
2018-05-29T00:20:57.679Z,9.73
2018-05-29T00:23:25.115Z,10.00
2018-05-29T00:25:52.698Z,10.57
2018-05-29T00:28:20.194Z,9.77
2018-05-29T00:30:47.652Z,10.15
2018-05-29T00:33:15.106Z,10.27
2018-05-29T00:35:42.564Z,9.85
2018-05-29T00:38:10.014Z,9.60
2018-05-29T00:40:38.109Z,10.43
2018-05-29T00:43:05.552Z,10.10
2018-05-29T00:45:32.975Z,10.25
2018-05-29T00:48:00.418Z,9.77
2018-05-29T00:50:28.488Z,10.25
2018-05-29T00:52:55.943Z,9.52
2018-05-29T00:55:35.341Z,9.85
2018-05-29T00:58:02.794Z,10.48
2018-05-29T01:00:30.334Z,10.02
2018-05-29T01:02:57.933Z,10.25
2018-05-29T01:05:25.371Z,10.65
2018-05-29T01:07:52.818Z,13.02
2018-05-29T01:10:20.252Z,10.15
2018-05-29T01:12:47.912Z,10.82
2018-05-29T01:15:15.360Z,10.65
2018-05-29T01:17:42.838Z,10.35
2018-05-29T01:20:10.300Z,10.43
2018-05-29T01:22:37.766Z,10.52
2018-05-29T01:25:05.214Z,10.90
2018-05-29T01:27:33.680Z,10.85
2018-05-29T01:30:01.132Z,11.05
2018-05-29T01:32:28.584Z,11.32
2018-05-29T01:34:58.297Z,10.43
2018-05-29T01:37:25.786Z,10.10
2018-05-29T01:39:53.260Z,10.00
2018-05-29T01:42:20.708Z,10.90
2018-05-29T01:44:48.176Z,11.23
2018-05-29T01:47:15.610Z,11.52
2018-05-29T01:49:44.430Z,11.10
2018-05-29T01:52:13.504Z,11.10
2018-05-29T01:54:40.941Z,10.73
2018-05-29T01:57:08.394Z,11.73
2018-05-29T01:59:35.834Z,11.25
2018-05-29T02:02:03.282Z,11.45
2018-05-29T02:04:31.110Z,11.75
2018-05-29T02:06:59.424Z,12.30
2018-05-29T02:09:26.904Z,11.65
2018-05-29T02:11:54.378Z,11.98
2018-05-29T02:14:21.820Z,11.82
2018-05-29T02:16:49.503Z,12.25
2018-05-29T02:19:16.985Z,12.48
2018-05-29T02:21:44.429Z,12.40
2018-05-29T02:24:11.910Z,11.88
2018-05-29T02:26:39.341Z,11.95
2018-05-29T02:29:06.803Z,12.55
2018-05-29T02:31:34.663Z,11.73
2018-05-29T02:34:02.925Z,12.85
2018-05-29T02:36:30.381Z,12.52
2018-05-29T02:38:57.837Z,12.45
2018-05-29T02:41:25.287Z,12.25
2018-05-29T02:43:52.738Z,11.80
2018-05-29T02:46:21.000Z,11.50
2018-05-29T02:48:50.009Z,11.85
2018-05-29T03:02:56.698Z,12.02
2018-05-29T03:05:24.167Z,11.82
2018-05-29T03:07:51.616Z,11.35
2018-05-29T03:10:19.058Z,14.38
2018-05-29T03:12:46.505Z,11.90
2018-05-29T03:15:15.124Z,12.65
2018-05-29T03:17:42.598Z,12.88
2018-05-29T03:20:10.035Z,11.55
2018-05-29T03:22:37.498Z,12.35
2018-05-29T03:25:04.946Z,12.18
2018-05-29T03:27:32.413Z,12.02
2018-05-29T03:29:59.877Z,11.35
2018-05-29T03:32:27.362Z,13.05
2018-05-29T03:34:54.811Z,10.85
2018-05-29T03:37:22.254Z,11.30
2018-05-29T03:39:49.752Z,14.60
2018-05-29T03:42:17.436Z,10.35
2018-05-29T03:44:44.914Z,11.30
2018-05-29T03:47:12.370Z,11.07
2018-05-29T03:49:39.804Z,10.88
2018-05-29T03:52:07.300Z,11.50
2018-05-29T03:54:34.960Z,10.68
2018-05-29T03:57:02.402Z,10.82
2018-05-29T03:59:29.858Z,10.60
2018-05-29T04:01:57.373Z,10.75
2018-05-29T04:04:25.781Z,10.77
2018-05-29T04:06:53.272Z,11.77
2018-05-29T04:09:20.741Z,11.15
2018-05-29T04:11:49.042Z,9.93
2018-05-29T04:14:16.534Z,10.68
2018-05-29T04:16:43.988Z,9.45
2018-05-29T04:19:11.458Z,10.45
2018-05-29T04:21:38.917Z,10.48
2018-05-29T04:24:07.396Z,11.25
2018-05-29T04:26:35.386Z,12.77
2018-05-29T04:29:03.176Z,11.35
2018-05-29T04:31:30.632Z,9.45
2018-05-29T04:33:58.081Z,10.25
2018-05-29T04:36:25.584Z,10.63
2018-05-29T04:38:53.040Z,11.35
2018-05-29T04:41:20.520Z,12.70
2018-05-29T04:43:47.966Z,10.45
2018-05-29T04:46:15.433Z,9.73
2018-05-29T04:48:42.899Z,11.12
2018-05-29T04:51:10.342Z,12.57
2018-05-29T04:53:38.645Z,14.10
2018-05-29T04:56:06.101Z,12.10
2018-05-29T04:58:33.548Z,11.55
2018-05-29T05:01:01.044Z,9.88
2018-05-29T05:03:28.524Z,12.57
2018-05-29T05:05:56.519Z,11.27
2018-05-29T05:08:24.919Z,11.77
2018-05-29T05:10:53.211Z,10.63
2018-05-29T05:13:20.733Z,11.88
2018-05-29T05:15:49.275Z,13.07
2018-05-29T05:18:16.716Z,11.15
2018-05-29T05:20:44.636Z,10.50
2018-05-29T05:23:12.221Z,12.40
2018-05-29T05:25:39.686Z,13.43
2018-05-29T05:28:07.153Z,12.40
2018-05-29T05:30:34.613Z,10.40
2018-05-29T05:33:02.070Z,10.00
2018-05-29T05:35:29.576Z,9.85
2018-05-29T05:37:57.060Z,15.55
2018-05-29T05:40:24.851Z,16.62
2018-05-29T05:42:52.311Z,13.88
2018-05-29T05:45:20.161Z,12.55
2018-05-29T05:47:47.629Z,10.68
2018-05-29T05:50:15.086Z,8.90
2018-05-29T05:52:42.530Z,12.18
2018-05-29T05:55:10.019Z,12.43
2018-05-29T05:57:37.461Z,10.20
2018-05-29T06:00:04.980Z,11.25
2018-05-29T06:02:32.456Z,9.48
2018-05-29T06:05:00.005Z,9.45
2018-05-29T06:07:27.685Z,11.77
2018-05-29T06:09:55.250Z,7.95
2018-05-29T06:12:22.684Z,9.57
2018-05-29T06:14:50.232Z,10.98
2018-05-29T06:17:17.706Z,9.43
2018-05-29T06:19:45.174Z,11.52
2018-05-29T06:22:12.640Z,10.23
2018-05-29T06:24:40.110Z,10.40
2018-05-29T06:27:07.579Z,13.30
2018-05-29T06:29:35.043Z,9.88
2018-05-29T06:32:02.545Z,10.27
2018-05-29T06:34:30.607Z,11.70
2018-05-29T06:36:58.761Z,11.88
2018-05-29T06:39:26.242Z,9.80
2018-05-29T06:41:53.688Z,8.38
2018-05-29T06:44:22.181Z,11.95
2018-05-29T06:46:50.547Z,8.98
2018-05-29T06:49:19.929Z,10.68
2018-05-29T06:51:47.409Z,9.20
2018-05-29T06:54:14.864Z,11.60
2018-05-29T06:56:42.344Z,10.10
2018-05-29T06:59:09.895Z,9.52
2018-05-29T07:01:37.363Z,10.05
2018-05-29T07:04:04.813Z,8.50
2018-05-29T07:06:32.273Z,10.07
2018-05-29T07:08:59.733Z,10.38
2018-05-29T07:13:59.515Z,10.32
2018-05-29T07:16:27.297Z,11.18
2018-05-29T07:18:54.759Z,12.40
2018-05-29T07:21:22.243Z,10.60
2018-05-29T07:23:49.757Z,10.82
2018-05-29T07:26:17.474Z,11.45
2018-05-29T07:28:44.942Z,10.48
2018-05-29T07:31:13.435Z,10.65
2018-05-29T07:33:41.165Z,8.90
2018-05-29T07:36:08.625Z,9.23
2018-05-29T07:38:36.105Z,9.38
2018-05-29T07:41:03.601Z,10.45
2018-05-29T07:43:31.057Z,8.75
2018-05-29T07:45:58.549Z,10.00
2018-05-29T07:48:26.029Z,11.25
2018-05-29T07:50:53.493Z,9.63
2018-05-29T07:53:21.029Z,12.35
2018-05-29T07:58:30.964Z,11.95
2018-05-29T08:00:58.587Z,9.93
2018-05-29T08:03:27.495Z,12.55
2018-05-29T08:05:56.450Z,9.43
2018-05-29T08:08:24.033Z,9.10
2018-05-29T08:10:51.674Z,10.07
2018-05-29T08:13:19.393Z,8.93
2018-05-29T08:15:46.902Z,9.35
2018-05-29T08:18:14.391Z,13.48
2018-05-29T08:20:41.929Z,10.15
2018-05-29T08:23:09.484Z,9.00
2018-05-29T08:25:37.019Z,9.57
2018-05-29T08:28:04.519Z,9.48
2018-05-29T08:30:32.047Z,9.90
2018-05-29T08:32:59.558Z,10.63
2018-05-29T08:35:27.087Z,10.75
2018-05-29T08:37:54.569Z,8.13
2018-05-29T08:40:22.277Z,12.52
2018-05-29T08:42:49.798Z,8.75
2018-05-29T08:45:17.385Z,9.20
2018-05-29T08:47:45.140Z,11.48
2018-05-29T08:50:12.883Z,13.32
2018-05-29T08:52:41.439Z,9.15
2018-05-29T08:55:08.986Z,10.85
2018-05-29T08:57:36.538Z,11.55
2018-05-29T09:00:04.127Z,12.27
2018-05-29T09:02:32.451Z,11.65
2018-05-29T09:04:59.959Z,10.82
2018-05-29T09:07:27.491Z,10.70
2018-05-29T09:09:55.489Z,11.30
2018-05-29T09:12:23.031Z,10.30
2018-05-29T09:14:50.543Z,10.98
2018-05-29T09:17:18.084Z,7.97
2018-05-29T09:19:46.241Z,9.35
2018-05-29T09:22:13.847Z,9.32
2018-05-29T09:24:41.377Z,9.15
2018-05-29T09:27:10.129Z,12.90
2018-05-29T09:29:37.741Z,12.35
2018-05-29T09:32:05.703Z,12.95
2018-05-29T09:34:34.956Z,10.73
2018-05-29T09:37:02.553Z,12.18
2018-05-29T09:39:30.295Z,9.48
2018-05-29T09:41:58.723Z,11.63
2018-05-29T09:44:26.262Z,11.27
2018-05-29T09:46:53.762Z,12.18
2018-05-29T09:49:21.551Z,10.65
2018-05-29T09:51:49.096Z,8.85
2018-05-29T09:54:16.586Z,10.68
2018-05-29T09:56:44.793Z,9.18
2018-05-29T09:59:12.249Z,9.98
2018-05-29T10:01:39.719Z,53.10
2018-05-29T10:04:07.195Z,130.07
2018-05-29T10:06:36.765Z,85.38
2018-05-29T10:09:04.296Z,41.33
2018-05-29T10:11:31.832Z,11.75
2018-05-29T10:13:59.305Z,11.48
2018-05-29T10:16:27.000Z,11.43
2018-05-29T10:18:55.326Z,11.43
2018-05-29T10:21:22.809Z,9.38
2018-05-29T10:23:50.338Z,8.98
2018-05-29T10:26:17.801Z,8.98
2018-05-29T10:28:45.323Z,10.43
2018-05-29T10:31:13.005Z,11.70
2018-05-29T10:33:41.027Z,10.07
2018-05-29T10:36:10.432Z,8.98
2018-05-29T10:38:37.920Z,8.98
2018-05-29T10:41:11.388Z,9.15
2018-05-29T10:43:38.829Z,9.07
2018-05-29T10:46:06.449Z,11.50
2018-05-29T10:48:34.818Z,8.65
2018-05-29T10:51:08.000Z,11.98
2018-05-29T10:53:35.567Z,8.93
2018-05-29T10:56:03.270Z,8.20
2018-05-29T10:58:30.785Z,11.43
2018-05-29T11:00:58.294Z,7.80
2018-05-29T11:03:26.589Z,9.20
2018-05-29T11:05:54.904Z,8.43
2018-05-29T11:08:23.350Z,7.85
2018-05-29T11:10:50.822Z,10.90
2018-05-29T11:13:18.810Z,9.15
2018-05-29T11:15:46.454Z,15.30
2018-05-29T11:18:13.980Z,8.98
2018-05-29T11:20:41.536Z,12.27
2018-05-29T11:23:09.897Z,8.18
2018-05-29T11:25:37.591Z,7.82
2018-05-29T11:28:05.815Z,9.90
2018-05-29T11:30:33.392Z,11.85
2018-05-29T11:33:00.866Z,11.00
2018-05-29T11:35:28.540Z,7.25
2018-05-29T11:37:55.985Z,8.27
2018-05-29T11:40:23.433Z,9.40
2018-05-29T11:42:51.194Z,8.13
2018-05-29T11:45:18.711Z,8.55
2018-05-29T11:47:46.186Z,6.90
2018-05-29T12:00:04.041Z,8.30
2018-05-29T12:02:31.558Z,7.55
2018-05-29T12:04:58.996Z,7.12
2018-05-29T12:07:26.740Z,6.43
2018-05-29T12:09:54.226Z,6.72
2018-05-29T12:15:14.829Z,7.45
2018-05-29T12:17:42.910Z,6.72
2018-05-29T12:20:11.918Z,9.50
2018-05-29T12:22:39.468Z,7.80
2018-05-29T12:25:07.888Z,8.75
2018-05-29T12:27:35.402Z,6.75
2018-05-29T12:30:02.850Z,8.18
2018-05-29T12:32:30.396Z,7.32
2018-05-29T12:34:57.900Z,8.50
2018-05-29T12:37:25.362Z,7.32
2018-05-29T12:39:52.838Z,6.72
2018-05-29T12:42:20.665Z,7.87
2018-05-29T12:44:49.370Z,7.37
2018-05-29T12:47:17.290Z,6.95
2018-05-29T12:49:44.753Z,10.68
2018-05-29T12:52:12.211Z,7.05
2018-05-29T12:54:40.337Z,9.02
2018-05-29T12:57:08.534Z,9.98
2018-05-29T12:59:36.040Z,8.15
2018-05-29T13:02:09.834Z,8.77
2018-05-29T13:04:38.146Z,7.45
2018-05-29T13:07:06.338Z,6.85
2018-05-29T13:09:33.854Z,7.87
2018-05-29T13:12:01.380Z,8.95
2018-05-29T13:14:28.828Z,7.50
2018-05-29T13:16:57.345Z,7.55
2018-05-29T13:19:24.827Z,7.97
2018-05-29T13:21:52.771Z,8.00
2018-05-29T13:24:20.232Z,7.28
2018-05-29T13:26:47.676Z,11.85
2018-05-29T13:29:15.143Z,9.02
2018-05-29T13:31:44.145Z,9.00
2018-05-29T13:34:11.837Z,11.43
2018-05-29T13:36:39.288Z,8.45
2018-05-29T13:39:06.764Z,10.18
2018-05-29T13:41:34.313Z,7.57
2018-05-29T13:44:01.824Z,7.50
2018-05-29T13:46:29.290Z,10.10
2018-05-29T13:48:56.809Z,8.85
2018-05-29T13:51:24.321Z,7.95
2018-05-29T13:53:52.718Z,8.27
2018-05-29T13:56:20.183Z,8.20
2018-05-29T13:58:47.635Z,8.13
2018-05-29T14:01:15.095Z,7.80
2018-05-29T14:03:42.536Z,9.30
2018-05-29T14:06:09.995Z,10.98
2018-05-29T14:08:38.392Z,8.00
2018-05-29T14:11:05.865Z,8.20
2018-05-29T14:13:33.367Z,9.68
2018-05-29T14:16:02.234Z,8.40
2018-05-29T14:18:29.858Z,9.50
2018-05-29T14:21:02.332Z,9.10
2018-05-29T14:23:30.040Z,8.02
2018-05-29T14:25:57.564Z,9.73
2018-05-29T14:28:25.098Z,8.85
2018-05-29T14:30:52.534Z,11.18
2018-05-29T14:33:23.241Z,9.40
2018-05-29T14:35:50.786Z,9.38
2018-05-29T14:38:18.249Z,8.73
2018-05-29T14:40:45.865Z,8.82
2018-05-29T14:43:13.324Z,8.35
2018-05-29T14:45:40.875Z,8.05
2018-05-29T14:48:09.270Z,8.90
2018-05-29T14:50:36.748Z,11.25
2018-05-29T14:53:04.210Z,9.07
2018-05-29T14:55:31.648Z,9.68
2018-05-29T14:57:59.370Z,8.68
2018-05-29T15:00:26.951Z,10.65
2018-05-29T15:02:55.271Z,8.10
2018-05-29T15:05:22.901Z,10.32
2018-05-29T15:07:51.419Z,8.68
2018-05-29T15:10:18.919Z,8.95
2018-05-29T15:12:46.374Z,8.48
2018-05-29T15:15:13.977Z,11.20
2018-05-29T15:17:41.506Z,8.85
2018-05-29T15:20:08.963Z,9.15
2018-05-29T15:22:36.432Z,9.35
2018-05-29T15:25:03.995Z,8.27
2018-05-29T15:27:31.823Z,9.63
2018-05-29T15:29:59.297Z,9.07
2018-05-29T15:32:26.783Z,12.32
2018-05-29T15:34:54.263Z,9.55
2018-05-29T15:37:21.761Z,9.02
2018-05-29T15:39:49.224Z,9.15
2018-05-29T15:42:16.700Z,9.25
2018-05-29T15:44:44.236Z,9.00
2018-05-29T15:47:12.006Z,9.00
2018-05-29T15:49:39.507Z,8.25
2018-05-29T15:52:07.090Z,9.60
2018-05-29T15:54:34.524Z,8.63
2018-05-29T15:57:01.988Z,9.32
2018-05-29T15:59:29.537Z,9.27
2018-05-29T16:01:57.012Z,9.27
2018-05-29T16:04:24.517Z,9.55
2018-05-29T16:06:51.983Z,10.07
2018-05-29T16:09:19.535Z,9.05
2018-05-29T16:11:47.100Z,9.35
2018-05-29T16:14:14.598Z,17.40
2018-05-29T16:16:42.840Z,9.00
2018-05-29T16:19:10.386Z,10.07
2018-05-29T16:21:37.821Z,9.25
2018-05-29T16:24:05.498Z,9.70
2018-05-29T16:26:33.010Z,9.13
2018-05-29T16:29:00.580Z,8.00
2018-05-29T16:31:28.839Z,8.13
2018-05-29T16:33:56.311Z,8.68
2018-05-29T16:36:23.743Z,8.98
2018-05-29T16:38:51.235Z,9.20
2018-05-29T16:41:18.700Z,10.48
2018-05-29T16:43:46.173Z,8.85
2018-05-29T16:46:13.660Z,12.85
2018-05-29T16:48:41.124Z,9.23
2018-05-29T16:51:08.548Z,9.05
2018-05-29T16:53:36.080Z,9.35
2018-05-29T16:56:03.607Z,10.45
2018-05-29T16:58:31.097Z,10.10
2018-05-29T17:00:58.619Z,9.00
2018-05-29T17:03:26.141Z,9.05
2018-05-29T17:05:53.629Z,9.27
2018-05-29T17:08:21.121Z,8.77
2018-05-29T17:10:49.504Z,10.55
2018-05-29T17:13:17.037Z,8.20
2018-05-29T17:15:44.999Z,8.82
2018-05-29T17:18:12.702Z,7.62
2018-05-29T17:20:40.201Z,8.18
2018-05-29T17:23:07.925Z,9.25
2018-05-29T17:25:35.580Z,8.82
2018-05-29T17:28:03.535Z,9.30
2018-05-29T17:30:31.083Z,9.40
2018-05-29T17:32:59.450Z,9.43
2018-05-29T17:35:28.066Z,9.07
2018-05-29T17:37:55.583Z,9.15
2018-05-29T17:40:23.517Z,9.88
2018-05-29T17:42:51.030Z,10.07
2018-05-29T17:45:18.509Z,9.80
2018-05-29T17:47:45.964Z,10.35
2018-05-29T17:50:14.109Z,10.40
2018-05-29T17:52:41.613Z,9.35
2018-05-29T17:55:09.090Z,9.32
2018-05-29T17:57:36.584Z,9.35
2018-05-29T18:00:04.174Z,9.95
2018-05-29T18:02:31.906Z,9.43
2018-05-29T18:04:59.682Z,8.30
2018-05-29T18:07:27.126Z,9.70
2018-05-29T18:09:54.634Z,10.00
2018-05-29T18:12:22.139Z,8.90
2018-05-29T18:14:49.589Z,9.18
2018-05-29T18:17:17.055Z,9.35
2018-05-29T18:19:44.547Z,10.25
2018-05-29T18:22:12.053Z,8.80
2018-05-29T18:24:39.511Z,9.00
2018-05-29T18:27:07.027Z,11.25
2018-05-29T18:29:35.907Z,10.63
2018-05-29T18:32:03.336Z,9.40
2018-05-29T18:34:30.818Z,12.35
2018-05-29T18:36:58.283Z,9.13
2018-05-29T18:39:25.763Z,11.02
2018-05-29T18:41:53.205Z,9.30
2018-05-29T18:44:20.733Z,9.00
2018-05-29T18:46:48.235Z,9.52
2018-05-29T18:49:15.720Z,10.35
2018-05-29T18:51:43.187Z,9.77
2018-05-29T18:54:11.713Z,10.88
2018-05-29T18:56:39.205Z,10.27
2018-05-29T18:59:06.655Z,8.50
2018-05-29T19:01:34.129Z,10.55
2018-05-29T19:04:01.587Z,9.25
2018-05-29T19:06:29.053Z,11.88
2018-05-29T19:08:56.521Z,9.40
2018-05-29T19:11:23.996Z,9.48
2018-05-29T19:13:51.513Z,9.38
2018-05-29T19:16:19.032Z,10.05
2018-05-29T19:18:46.505Z,11.48
2018-05-29T19:21:13.967Z,9.80
2018-05-29T19:23:41.443Z,9.48
2018-05-29T19:26:08.904Z,12.75
2018-05-29T19:28:36.355Z,9.88
2018-05-29T19:31:13.419Z,10.35
2018-05-29T19:33:40.897Z,11.55
2018-05-29T19:36:08.832Z,10.65
2018-05-29T19:38:36.275Z,11.98
2018-05-29T19:41:08.670Z,12.07
2018-05-29T19:43:36.155Z,10.38
2018-05-29T19:46:03.637Z,11.63
2018-05-29T19:48:31.124Z,13.90
2018-05-29T19:50:58.724Z,9.55
2018-05-29T19:53:26.241Z,9.05
2018-05-29T19:55:53.695Z,10.40
2018-05-29T19:58:21.245Z,9.45
2018-05-29T20:00:48.728Z,10.40
2018-05-29T20:03:16.241Z,9.32
2018-05-29T20:05:43.800Z,9.02
2018-05-29T20:08:11.309Z,9.05
2018-05-29T20:10:38.826Z,9.43
2018-05-29T20:13:06.317Z,9.13
2018-05-29T20:15:33.826Z,10.13
2018-05-29T20:18:01.267Z,12.15
2018-05-29T20:20:28.746Z,9.52
2018-05-29T20:22:56.231Z,8.93
2018-05-29T20:25:23.765Z,8.68
2018-05-29T20:27:51.229Z,9.77
2018-05-29T20:30:18.669Z,8.68
2018-05-29T20:32:46.180Z,9.93
2018-05-29T20:35:13.690Z,8.85
2018-05-29T20:37:41.154Z,9.32
2018-05-29T20:40:08.673Z,8.50
2018-05-29T20:42:36.235Z,9.00
2018-05-29T20:45:03.684Z,8.43
2018-05-29T20:47:31.186Z,8.32
2018-05-29T20:49:58.701Z,9.32
2018-05-29T20:52:26.170Z,8.65
2018-05-29T20:54:53.677Z,8.40
2018-05-29T20:57:21.211Z,8.43
2018-05-29T20:59:48.665Z,11.60
2018-05-29T21:02:16.158Z,13.05
2018-05-29T21:04:43.727Z,8.68
2018-05-29T21:07:12.066Z,8.73
2018-05-29T21:09:39.555Z,8.85
2018-05-29T21:12:07.964Z,8.48
2018-05-29T21:14:35.530Z,9.02
2018-05-29T21:17:03.080Z,8.77
2018-05-29T21:19:30.585Z,10.63
2018-05-29T21:21:58.136Z,8.73
2018-05-29T21:24:25.708Z,8.32
2018-05-29T21:26:53.172Z,8.18
2018-05-29T21:29:20.744Z,8.80
2018-05-29T21:31:48.308Z,10.15
2018-05-29T21:34:15.850Z,8.55
2018-05-29T21:36:44.332Z,8.65
2018-05-29T21:39:11.783Z,8.82
2018-05-29T21:41:39.235Z,9.60
2018-05-29T21:44:06.733Z,9.35
2018-05-29T21:46:34.235Z,10.82
2018-05-29T21:49:02.151Z,8.88
2018-05-29T21:51:30.327Z,9.20
2018-05-29T21:53:57.803Z,9.05
2018-05-29T21:56:25.275Z,9.40
2018-05-29T21:58:52.694Z,8.85
2018-05-29T22:01:21.026Z,9.73
2018-05-29T22:03:49.322Z,10.40
2018-05-29T22:06:16.781Z,9.60
2018-05-29T22:08:44.327Z,12.32
2018-05-29T22:11:11.775Z,8.57
2018-05-29T22:13:39.239Z,10.27
2018-05-29T22:16:07.518Z,9.90
2018-05-29T22:18:34.947Z,9.90
2018-05-29T22:21:02.445Z,10.40
2018-05-29T22:23:29.887Z,9.52
2018-05-29T22:25:58.134Z,9.65
2018-05-29T22:28:25.571Z,10.32
2018-05-29T22:30:53.103Z,12.07
2018-05-29T22:33:20.559Z,10.13
2018-05-29T22:35:48.003Z,10.60
2018-05-29T22:38:15.465Z,10.73
2018-05-29T22:40:42.907Z,10.23
2018-05-29T22:43:10.977Z,10.40
2018-05-29T22:45:38.481Z,12.37
2018-05-29T22:48:07.480Z,10.90
2018-05-29T22:50:35.247Z,11.95
2018-05-29T22:53:03.103Z,10.60
2018-05-29T22:55:30.793Z,10.38
2018-05-29T22:57:58.621Z,10.40
2018-05-29T23:00:26.880Z,10.88
2018-05-29T23:02:54.317Z,10.95
2018-05-29T23:05:22.993Z,11.75
2018-05-29T23:07:50.609Z,11.32
2018-05-29T23:10:19.406Z,11.00
2018-05-29T23:12:47.006Z,12.25
2018-05-29T23:22:17.530Z,11.90
2018-05-29T23:24:45.723Z,12.98
2018-05-29T23:27:14.155Z,11.63
2018-05-29T23:32:30.402Z,12.35
2018-05-29T23:34:58.584Z,11.80
2018-05-29T23:37:34.468Z,11.57
2018-05-29T23:40:02.096Z,12.40
2018-05-29T23:42:30.300Z,11.00
2018-05-29T23:44:57.904Z,11.40
2018-05-29T23:47:25.563Z,11.10
2018-05-29T23:49:53.013Z,13.48
2018-05-29T23:52:21.001Z,11.98
2018-05-29T23:54:48.480Z,12.00
2018-05-29T23:57:15.939Z,12.27
2018-05-29T23:59:43.394Z,13.75
